sensor_id;sensor_type;location;lat;lon;timestamp;P1;durP1;ratioP1;P2;durP2;ratioP2
65071;SDS011;51663;52.310;17.016;2023-02-28T00:03:01;53.73;;;22.23;;
65071;SDS011;51663;52.310;17.016;2023-02-28T00:06:04;47.53;;;20.23;;
65071;SDS011;51663;52.310;17.016;2023-02-28T00:09:07;42.53;;;18.43;;
65071;SDS011;51663;52.310;17.016;2023-02-28T00:12:10;53.43;;;22.93;;
65071;SDS011;51663;52.310;17.016;2023-02-28T00:15:12;93.03;;;34.93;;
65071;SDS011;51663;52.310;17.016;2023-02-28T00:18:14;245.87;;;75.73;;
65071;SDS011;51663;52.310;17.016;2023-02-28T00:21:17;56.07;;;22.47;;
65071;SDS011;51663;52.310;17.016;2023-02-28T00:24:21;36.00;;;16.40;;
65071;SDS011;51663;52.310;17.016;2023-02-28T00:27:23;32.90;;;16.00;;
65071;SDS011;51663;52.310;17.016;2023-02-28T00:30:25;59.63;;;21.73;;
65071;SDS011;51663;52.310;17.016;2023-02-28T00:33:27;39.00;;;16.87;;
65071;SDS011;51663;52.310;17.016;2023-02-28T00:36:30;35.63;;;16.10;;
65071;SDS011;51663;52.310;17.016;2023-02-28T00:39:36;40.30;;;17.73;;
65071;SDS011;51663;52.310;17.016;2023-02-28T00:42:39;34.97;;;16.23;;
65071;SDS011;51663;52.310;17.016;2023-02-28T00:45:41;61.97;;;22.93;;
65071;SDS011;51663;52.310;17.016;2023-02-28T00:48:43;35.90;;;17.17;;
65071;SDS011;51663;52.310;17.016;2023-02-28T00:51:46;32.57;;;16.20;;
65071;SDS011;51663;52.310;17.016;2023-02-28T00:54:48;43.30;;;16.53;;
65071;SDS011;51663;52.310;17.016;2023-02-28T00:57:50;37.90;;;18.40;;
65071;SDS011;51663;52.310;17.016;2023-02-28T01:00:52;63.23;;;23.23;;
65071;SDS011;51663;52.310;17.016;2023-02-28T01:03:55;96.77;;;32.57;;
65071;SDS011;51663;52.310;17.016;2023-02-28T01:06:57;73.83;;;25.50;;
65071;SDS011;51663;52.310;17.016;2023-02-28T01:09:59;84.13;;;29.30;;
65071;SDS011;51663;52.310;17.016;2023-02-28T01:13:02;73.70;;;26.10;;
65071;SDS011;51663;52.310;17.016;2023-02-28T01:16:04;74.37;;;27.47;;
65071;SDS011;51663;52.310;17.016;2023-02-28T01:19:07;71.20;;;26.60;;
65071;SDS011;51663;52.310;17.016;2023-02-28T01:22:09;47.60;;;18.40;;
65071;SDS011;51663;52.310;17.016;2023-02-28T01:25:11;47.40;;;19.40;;
65071;SDS011;51663;52.310;17.016;2023-02-28T01:28:14;49.87;;;19.43;;
65071;SDS011;51663;52.310;17.016;2023-02-28T01:31:17;51.50;;;18.70;;
65071;SDS011;51663;52.310;17.016;2023-02-28T01:34:19;50.60;;;19.07;;
65071;SDS011;51663;52.310;17.016;2023-02-28T01:37:22;45.00;;;19.87;;
65071;SDS011;51663;52.310;17.016;2023-02-28T01:40:24;51.73;;;20.63;;
65071;SDS011;51663;52.310;17.016;2023-02-28T01:43:28;48.70;;;20.77;;
65071;SDS011;51663;52.310;17.016;2023-02-28T01:46:33;34.60;;;16.50;;
65071;SDS011;51663;52.310;17.016;2023-02-28T01:49:37;34.30;;;16.47;;
65071;SDS011;51663;52.310;17.016;2023-02-28T01:52:40;47.73;;;18.97;;
65071;SDS011;51663;52.310;17.016;2023-02-28T01:55:45;41.20;;;17.57;;
65071;SDS011;51663;52.310;17.016;2023-02-28T01:58:50;37.37;;;18.40;;
65071;SDS011;51663;52.310;17.016;2023-02-28T02:01:54;41.30;;;17.23;;
65071;SDS011;51663;52.310;17.016;2023-02-28T02:04:58;38.43;;;16.77;;
65071;SDS011;51663;52.310;17.016;2023-02-28T02:08:04;46.13;;;20.37;;
65071;SDS011;51663;52.310;17.016;2023-02-28T02:11:09;47.33;;;21.37;;
65071;SDS011;51663;52.310;17.016;2023-02-28T02:20:42;54.83;;;23.03;;
65071;SDS011;51663;52.310;17.016;2023-02-28T02:37:48;69.77;;;29.87;;
65071;SDS011;51663;52.310;17.016;2023-02-28T02:44:34;59.27;;;25.33;;
65071;SDS011;51663;52.310;17.016;2023-02-28T02:47:46;52.00;;;23.53;;
65071;SDS011;51663;52.310;17.016;2023-02-28T02:50:50;53.57;;;23.13;;
65071;SDS011;51663;52.310;17.016;2023-02-28T02:54:01;49.63;;;22.30;;
65071;SDS011;51663;52.310;17.016;2023-02-28T02:57:05;50.07;;;23.00;;
65071;SDS011;51663;52.310;17.016;2023-02-28T03:00:11;50.00;;;21.80;;
65071;SDS011;51663;52.310;17.016;2023-02-28T03:03:17;54.60;;;22.30;;
65071;SDS011;51663;52.310;17.016;2023-02-28T03:06:22;50.67;;;21.20;;
65071;SDS011;51663;52.310;17.016;2023-02-28T03:09:25;54.73;;;23.10;;
65071;SDS011;51663;52.310;17.016;2023-02-28T03:12:32;44.43;;;20.40;;
65071;SDS011;51663;52.310;17.016;2023-02-28T03:16:00;50.77;;;21.03;;
65071;SDS011;51663;52.310;17.016;2023-02-28T03:25:58;45.10;;;20.53;;
65071;SDS011;51663;52.310;17.016;2023-02-28T03:32:24;56.47;;;20.33;;
65071;SDS011;51663;52.310;17.016;2023-02-28T03:35:32;51.17;;;20.30;;
65071;SDS011;51663;52.310;17.016;2023-02-28T03:38:47;47.13;;;19.70;;
65071;SDS011;51663;52.310;17.016;2023-02-28T03:41:58;49.60;;;20.70;;
65071;SDS011;51663;52.310;17.016;2023-02-28T03:45:04;54.83;;;20.03;;
65071;SDS011;51663;52.310;17.016;2023-02-28T03:51:31;48.10;;;20.60;;
65071;SDS011;51663;52.310;17.016;2023-02-28T03:54:36;45.27;;;19.50;;
65071;SDS011;51663;52.310;17.016;2023-02-28T03:58:06;45.73;;;20.13;;
65071;SDS011;51663;52.310;17.016;2023-02-28T04:01:21;52.33;;;25.27;;
65071;SDS011;51663;52.310;17.016;2023-02-28T04:04:29;45.53;;;20.33;;
65071;SDS011;51663;52.310;17.016;2023-02-28T04:07:31;57.70;;;20.83;;
65071;SDS011;51663;52.310;17.016;2023-02-28T04:10:33;43.33;;;19.83;;
65071;SDS011;51663;52.310;17.016;2023-02-28T04:13:35;44.43;;;19.80;;
65071;SDS011;51663;52.310;17.016;2023-02-28T04:16:39;45.80;;;20.30;;
65071;SDS011;51663;52.310;17.016;2023-02-28T04:19:42;53.50;;;20.47;;
65071;SDS011;51663;52.310;17.016;2023-02-28T04:22:44;43.87;;;19.67;;
65071;SDS011;51663;52.310;17.016;2023-02-28T04:25:46;47.47;;;18.97;;
65071;SDS011;51663;52.310;17.016;2023-02-28T04:28:49;53.33;;;21.50;;
65071;SDS011;51663;52.310;17.016;2023-02-28T04:31:51;47.03;;;20.40;;
65071;SDS011;51663;52.310;17.016;2023-02-28T04:34:59;54.47;;;20.03;;
65071;SDS011;51663;52.310;17.016;2023-02-28T04:38:01;50.40;;;19.67;;
65071;SDS011;51663;52.310;17.016;2023-02-28T04:41:03;46.33;;;19.50;;
65071;SDS011;51663;52.310;17.016;2023-02-28T04:44:06;44.77;;;18.57;;
65071;SDS011;51663;52.310;17.016;2023-02-28T04:47:08;42.20;;;19.23;;
65071;SDS011;51663;52.310;17.016;2023-02-28T04:50:11;42.63;;;18.90;;
65071;SDS011;51663;52.310;17.016;2023-02-28T04:53:13;46.23;;;18.90;;
65071;SDS011;51663;52.310;17.016;2023-02-28T04:56:16;43.53;;;18.93;;
65071;SDS011;51663;52.310;17.016;2023-02-28T04:59:19;46.33;;;18.53;;
65071;SDS011;51663;52.310;17.016;2023-02-28T05:02:21;48.83;;;19.83;;
65071;SDS011;51663;52.310;17.016;2023-02-28T05:05:25;51.30;;;19.63;;
65071;SDS011;51663;52.310;17.016;2023-02-28T05:08:27;48.13;;;19.77;;
65071;SDS011;51663;52.310;17.016;2023-02-28T05:11:32;58.50;;;25.30;;
65071;SDS011;51663;52.310;17.016;2023-02-28T05:14:36;60.23;;;21.33;;
65071;SDS011;51663;52.310;17.016;2023-02-28T05:17:38;44.80;;;19.60;;
65071;SDS011;51663;52.310;17.016;2023-02-28T05:20:40;51.77;;;20.47;;
65071;SDS011;51663;52.310;17.016;2023-02-28T05:23:43;46.20;;;19.67;;
65071;SDS011;51663;52.310;17.016;2023-02-28T05:26:47;47.83;;;19.40;;
65071;SDS011;51663;52.310;17.016;2023-02-28T05:29:50;48.60;;;20.07;;
65071;SDS011;51663;52.310;17.016;2023-02-28T05:32:52;57.37;;;19.87;;
65071;SDS011;51663;52.310;17.016;2023-02-28T05:35:54;61.77;;;27.40;;
65071;SDS011;51663;52.310;17.016;2023-02-28T05:38:56;51.47;;;21.23;;
65071;SDS011;51663;52.310;17.016;2023-02-28T05:41:59;54.70;;;19.30;;
65071;SDS011;51663;52.310;17.016;2023-02-28T05:45:01;60.50;;;19.40;;
65071;SDS011;51663;52.310;17.016;2023-02-28T05:48:03;58.03;;;19.30;;
65071;SDS011;51663;52.310;17.016;2023-02-28T05:51:06;57.90;;;19.57;;
65071;SDS011;51663;52.310;17.016;2023-02-28T05:54:09;64.40;;;20.80;;
65071;SDS011;51663;52.310;17.016;2023-02-28T05:57:14;53.60;;;20.87;;
65071;SDS011;51663;52.310;17.016;2023-02-28T06:00:28;55.33;;;20.03;;
65071;SDS011;51663;52.310;17.016;2023-02-28T06:03:30;51.67;;;20.07;;
65071;SDS011;51663;52.310;17.016;2023-02-28T06:06:32;67.17;;;20.97;;
65071;SDS011;51663;52.310;17.016;2023-02-28T06:09:38;51.43;;;20.13;;
65071;SDS011;51663;52.310;17.016;2023-02-28T06:12:40;51.60;;;21.10;;
65071;SDS011;51663;52.310;17.016;2023-02-28T06:15:43;58.03;;;23.20;;
65071;SDS011;51663;52.310;17.016;2023-02-28T06:18:45;56.53;;;21.93;;
65071;SDS011;51663;52.310;17.016;2023-02-28T06:21:48;74.33;;;30.03;;
65071;SDS011;51663;52.310;17.016;2023-02-28T06:24:52;71.93;;;32.03;;
65071;SDS011;51663;52.310;17.016;2023-02-28T06:27:55;60.63;;;27.67;;
65071;SDS011;51663;52.310;17.016;2023-02-28T06:30:58;58.20;;;25.03;;
65071;SDS011;51663;52.310;17.016;2023-02-28T06:34:00;50.37;;;23.70;;
65071;SDS011;51663;52.310;17.016;2023-02-28T06:37:02;55.17;;;22.70;;
65071;SDS011;51663;52.310;17.016;2023-02-28T06:40:05;50.87;;;21.40;;
65071;SDS011;51663;52.310;17.016;2023-02-28T06:43:08;48.63;;;21.00;;
65071;SDS011;51663;52.310;17.016;2023-02-28T06:46:13;46.07;;;19.93;;
65071;SDS011;51663;52.310;17.016;2023-02-28T06:49:16;44.87;;;20.53;;
65071;SDS011;51663;52.310;17.016;2023-02-28T06:52:18;42.40;;;19.70;;
65071;SDS011;51663;52.310;17.016;2023-02-28T06:55:21;46.27;;;20.37;;
65071;SDS011;51663;52.310;17.016;2023-02-28T06:58:23;39.47;;;18.83;;
65071;SDS011;51663;52.310;17.016;2023-02-28T07:01:25;43.87;;;19.00;;
65071;SDS011;51663;52.310;17.016;2023-02-28T07:04:29;41.27;;;18.83;;
65071;SDS011;51663;52.310;17.016;2023-02-28T07:07:32;35.27;;;18.27;;
65071;SDS011;51663;52.310;17.016;2023-02-28T07:10:36;43.43;;;19.63;;
65071;SDS011;51663;52.310;17.016;2023-02-28T07:13:39;92.17;;;41.33;;
65071;SDS011;51663;52.310;17.016;2023-02-28T07:16:41;39.20;;;19.17;;
65071;SDS011;51663;52.310;17.016;2023-02-28T07:19:43;34.77;;;17.27;;
65071;SDS011;51663;52.310;17.016;2023-02-28T07:22:45;38.27;;;18.70;;
65071;SDS011;51663;52.310;17.016;2023-02-28T07:25:53;34.13;;;17.63;;
65071;SDS011;51663;52.310;17.016;2023-02-28T07:28:55;36.67;;;18.20;;
65071;SDS011;51663;52.310;17.016;2023-02-28T07:31:57;40.67;;;19.00;;
65071;SDS011;51663;52.310;17.016;2023-02-28T07:34:59;37.67;;;19.30;;
65071;SDS011;51663;52.310;17.016;2023-02-28T07:38:02;43.17;;;18.97;;
65071;SDS011;51663;52.310;17.016;2023-02-28T07:41:05;41.40;;;18.70;;
65071;SDS011;51663;52.310;17.016;2023-02-28T07:44:07;39.77;;;19.90;;
65071;SDS011;51663;52.310;17.016;2023-02-28T07:47:09;43.57;;;18.63;;
65071;SDS011;51663;52.310;17.016;2023-02-28T07:50:14;40.37;;;20.40;;
65071;SDS011;51663;52.310;17.016;2023-02-28T07:53:16;42.97;;;20.90;;
65071;SDS011;51663;52.310;17.016;2023-02-28T07:56:19;41.77;;;20.00;;
65071;SDS011;51663;52.310;17.016;2023-02-28T07:59:21;36.63;;;19.90;;
65071;SDS011;51663;52.310;17.016;2023-02-28T08:02:23;40.90;;;21.03;;
65071;SDS011;51663;52.310;17.016;2023-02-28T08:05:25;41.97;;;20.70;;
65071;SDS011;51663;52.310;17.016;2023-02-28T08:08:28;44.07;;;20.77;;
65071;SDS011;51663;52.310;17.016;2023-02-28T08:11:32;44.77;;;20.90;;
65071;SDS011;51663;52.310;17.016;2023-02-28T08:14:35;35.30;;;18.13;;
65071;SDS011;51663;52.310;17.016;2023-02-28T08:17:37;35.87;;;18.50;;
65071;SDS011;51663;52.310;17.016;2023-02-28T08:20:39;31.50;;;17.07;;
65071;SDS011;51663;52.310;17.016;2023-02-28T08:23:41;38.30;;;16.40;;
65071;SDS011;51663;52.310;17.016;2023-02-28T08:26:44;34.17;;;17.00;;
65071;SDS011;51663;52.310;17.016;2023-02-28T08:29:46;31.67;;;16.27;;
65071;SDS011;51663;52.310;17.016;2023-02-28T08:32:48;34.97;;;15.57;;
65071;SDS011;51663;52.310;17.016;2023-02-28T08:35:53;30.93;;;14.83;;
65071;SDS011;51663;52.310;17.016;2023-02-28T08:38:57;32.10;;;15.77;;
65071;SDS011;51663;52.310;17.016;2023-02-28T08:42:01;25.40;;;14.43;;
65071;SDS011;51663;52.310;17.016;2023-02-28T08:45:08;30.70;;;16.13;;
65071;SDS011;51663;52.310;17.016;2023-02-28T08:48:10;33.13;;;16.20;;
65071;SDS011;51663;52.310;17.016;2023-02-28T08:51:14;28.87;;;16.50;;
65071;SDS011;51663;52.310;17.016;2023-02-28T08:54:19;32.80;;;16.70;;
65071;SDS011;51663;52.310;17.016;2023-02-28T08:57:22;26.00;;;14.07;;
65071;SDS011;51663;52.310;17.016;2023-02-28T09:00:24;29.17;;;14.70;;
65071;SDS011;51663;52.310;17.016;2023-02-28T09:03:27;26.57;;;15.00;;
65071;SDS011;51663;52.310;17.016;2023-02-28T09:06:29;32.00;;;16.13;;
65071;SDS011;51663;52.310;17.016;2023-02-28T09:09:31;50.63;;;25.33;;
65071;SDS011;51663;52.310;17.016;2023-02-28T09:12:34;27.77;;;15.43;;
65071;SDS011;51663;52.310;17.016;2023-02-28T09:15:37;84.37;;;31.83;;
65071;SDS011;51663;52.310;17.016;2023-02-28T09:18:40;26.70;;;13.73;;
65071;SDS011;51663;52.310;17.016;2023-02-28T09:21:42;29.23;;;15.63;;
65071;SDS011;51663;52.310;17.016;2023-02-28T09:24:44;27.63;;;15.53;;
65071;SDS011;51663;52.310;17.016;2023-02-28T09:27:47;34.07;;;16.30;;
65071;SDS011;51663;52.310;17.016;2023-02-28T09:30:51;27.30;;;14.63;;
65071;SDS011;51663;52.310;17.016;2023-02-28T09:33:56;30.73;;;16.17;;
65071;SDS011;51663;52.310;17.016;2023-02-28T09:36:58;33.70;;;17.20;;
65071;SDS011;51663;52.310;17.016;2023-02-28T09:40:01;25.63;;;14.57;;
65071;SDS011;51663;52.310;17.016;2023-02-28T09:43:04;27.83;;;13.80;;
65071;SDS011;51663;52.310;17.016;2023-02-28T09:49:45;30.43;;;15.40;;
65071;SDS011;51663;52.310;17.016;2023-02-28T09:52:49;25.63;;;14.90;;
65071;SDS011;51663;52.310;17.016;2023-02-28T09:55:55;28.30;;;15.07;;
65071;SDS011;51663;52.310;17.016;2023-02-28T09:59:01;24.23;;;13.50;;
65071;SDS011;51663;52.310;17.016;2023-02-28T10:05:50;21.27;;;11.30;;
65071;SDS011;51663;52.310;17.016;2023-02-28T10:09:02;23.57;;;12.60;;
65071;SDS011;51663;52.310;17.016;2023-02-28T10:12:15;23.83;;;13.07;;
65071;SDS011;51663;52.310;17.016;2023-02-28T10:15:18;27.17;;;14.67;;
65071;SDS011;51663;52.310;17.016;2023-02-28T10:18:26;26.63;;;14.90;;
65071;SDS011;51663;52.310;17.016;2023-02-28T10:21:42;26.63;;;15.33;;
65071;SDS011;51663;52.310;17.016;2023-02-28T10:24:50;21.37;;;12.27;;
65071;SDS011;51663;52.310;17.016;2023-02-28T10:27:54;25.83;;;14.97;;
65071;SDS011;51663;52.310;17.016;2023-02-28T10:31:08;20.43;;;13.03;;
65071;SDS011;51663;52.310;17.016;2023-02-28T10:34:16;20.37;;;12.20;;
65071;SDS011;51663;52.310;17.016;2023-02-28T10:37:19;14.53;;;9.00;;
65071;SDS011;51663;52.310;17.016;2023-02-28T10:43:44;20.00;;;10.20;;
65071;SDS011;51663;52.310;17.016;2023-02-28T10:46:46;17.07;;;11.30;;
65071;SDS011;51663;52.310;17.016;2023-02-28T10:49:50;24.10;;;11.93;;
65071;SDS011;51663;52.310;17.016;2023-02-28T10:52:54;16.80;;;10.80;;
65071;SDS011;51663;52.310;17.016;2023-02-28T10:56:01;18.53;;;11.07;;
65071;SDS011;51663;52.310;17.016;2023-02-28T11:02:29;20.30;;;12.37;;
65071;SDS011;51663;52.310;17.016;2023-02-28T11:05:37;15.23;;;10.00;;
65071;SDS011;51663;52.310;17.016;2023-02-28T11:08:43;19.73;;;10.30;;
65071;SDS011;51663;52.310;17.016;2023-02-28T11:11:50;18.77;;;10.10;;
65071;SDS011;51663;52.310;17.016;2023-02-28T11:15:04;24.33;;;12.53;;
65071;SDS011;51663;52.310;17.016;2023-02-28T11:19:02;15.80;;;9.50;;
65071;SDS011;51663;52.310;17.016;2023-02-28T11:21:57;19.63;;;12.20;;
65071;SDS011;51663;52.310;17.016;2023-02-28T11:25:07;16.27;;;10.20;;
65071;SDS011;51663;52.310;17.016;2023-02-28T11:28:31;26.63;;;12.90;;
65071;SDS011;51663;52.310;17.016;2023-02-28T11:31:35;22.07;;;11.70;;
65071;SDS011;51663;52.310;17.016;2023-02-28T11:34:38;16.50;;;9.67;;
65071;SDS011;51663;52.310;17.016;2023-02-28T11:37:41;19.67;;;10.80;;
65071;SDS011;51663;52.310;17.016;2023-02-28T11:44:01;20.33;;;9.93;;
65071;SDS011;51663;52.310;17.016;2023-02-28T11:47:21;16.97;;;10.40;;
65071;SDS011;51663;52.310;17.016;2023-02-28T12:11:14;19.07;;;10.93;;
65071;SDS011;51663;52.310;17.016;2023-02-28T12:17:38;19.33;;;11.13;;
65071;SDS011;51663;52.310;17.016;2023-02-28T12:21:08;20.60;;;12.03;;
65071;SDS011;51663;52.310;17.016;2023-02-28T12:27:35;17.70;;;12.00;;
65071;SDS011;51663;52.310;17.016;2023-02-28T12:31:04;17.87;;;11.97;;
65071;SDS011;51663;52.310;17.016;2023-02-28T12:34:17;19.87;;;11.37;;
65071;SDS011;51663;52.310;17.016;2023-02-28T12:44:04;20.57;;;10.97;;
65071;SDS011;51663;52.310;17.016;2023-02-28T12:47:17;22.13;;;11.07;;
65071;SDS011;51663;52.310;17.016;2023-02-28T12:50:19;21.50;;;11.70;;
65071;SDS011;51663;52.310;17.016;2023-02-28T12:53:32;17.83;;;10.37;;
65071;SDS011;51663;52.310;17.016;2023-02-28T12:56:48;21.63;;;10.97;;
65071;SDS011;51663;52.310;17.016;2023-02-28T12:59:59;17.83;;;10.97;;
65071;SDS011;51663;52.310;17.016;2023-02-28T13:03:37;18.30;;;11.80;;
65071;SDS011;51663;52.310;17.016;2023-02-28T13:10:43;18.73;;;11.03;;
65071;SDS011;51663;52.310;17.016;2023-02-28T13:14:03;19.83;;;11.43;;
65071;SDS011;51663;52.310;17.016;2023-02-28T13:17:20;16.70;;;11.07;;
65071;SDS011;51663;52.310;17.016;2023-02-28T13:20:27;21.83;;;11.23;;
65071;SDS011;51663;52.310;17.016;2023-02-28T13:30:01;20.13;;;11.17;;
65071;SDS011;51663;52.310;17.016;2023-02-28T13:36:27;18.60;;;11.33;;
65071;SDS011;51663;52.310;17.016;2023-02-28T13:46:05;17.33;;;10.80;;
65071;SDS011;51663;52.310;17.016;2023-02-28T13:52:34;20.13;;;12.10;;
65071;SDS011;51663;52.310;17.016;2023-02-28T14:06:23;22.67;;;13.40;;
65071;SDS011;51663;52.310;17.016;2023-02-28T14:09:35;22.43;;;11.07;;
65071;SDS011;51663;52.310;17.016;2023-02-28T14:16:01;18.57;;;10.97;;
65071;SDS011;51663;52.310;17.016;2023-02-28T14:19:12;16.47;;;10.53;;
65071;SDS011;51663;52.310;17.016;2023-02-28T14:36:25;17.23;;;9.90;;
65071;SDS011;51663;52.310;17.016;2023-02-28T14:39:35;22.53;;;13.80;;
65071;SDS011;51663;52.310;17.016;2023-02-28T14:42:38;20.00;;;10.83;;
65071;SDS011;51663;52.310;17.016;2023-02-28T14:45:48;18.60;;;11.03;;
65071;SDS011;51663;52.310;17.016;2023-02-28T14:49:03;14.50;;;9.60;;
65071;SDS011;51663;52.310;17.016;2023-02-28T14:55:35;19.47;;;10.27;;
65071;SDS011;51663;52.310;17.016;2023-02-28T14:58:38;21.87;;;11.47;;
65071;SDS011;51663;52.310;17.016;2023-02-28T15:01:40;19.83;;;10.83;;
65071;SDS011;51663;52.310;17.016;2023-02-28T15:04:43;18.53;;;10.70;;
65071;SDS011;51663;52.310;17.016;2023-02-28T15:08:13;19.77;;;11.23;;
65071;SDS011;51663;52.310;17.016;2023-02-28T15:11:18;23.30;;;11.63;;
65071;SDS011;51663;52.310;17.016;2023-02-28T15:14:23;21.70;;;10.33;;
65071;SDS011;51663;52.310;17.016;2023-02-28T15:17:29;33.00;;;17.83;;
65071;SDS011;51663;52.310;17.016;2023-02-28T15:20:32;26.73;;;11.87;;
65071;SDS011;51663;52.310;17.016;2023-02-28T15:23:35;23.13;;;11.60;;
65071;SDS011;51663;52.310;17.016;2023-02-28T15:26:40;25.43;;;10.93;;
65071;SDS011;51663;52.310;17.016;2023-02-28T15:29:48;21.07;;;11.20;;
65071;SDS011;51663;52.310;17.016;2023-02-28T15:36:20;22.07;;;11.40;;
65071;SDS011;51663;52.310;17.016;2023-02-28T15:39:29;18.87;;;10.70;;
65071;SDS011;51663;52.310;17.016;2023-02-28T15:42:32;22.70;;;11.70;;
65071;SDS011;51663;52.310;17.016;2023-02-28T15:45:39;27.23;;;12.20;;
65071;SDS011;51663;52.310;17.016;2023-02-28T15:48:57;20.50;;;11.83;;
65071;SDS011;51663;52.310;17.016;2023-02-28T15:52:00;23.17;;;12.40;;
65071;SDS011;51663;52.310;17.016;2023-02-28T15:58:24;24.83;;;11.10;;
65071;SDS011;51663;52.310;17.016;2023-02-28T16:01:31;23.87;;;11.93;;
65071;SDS011;51663;52.310;17.016;2023-02-28T16:04:54;21.30;;;11.63;;
65071;SDS011;51663;52.310;17.016;2023-02-28T16:08:13;21.80;;;11.13;;
65071;SDS011;51663;52.310;17.016;2023-02-28T16:11:16;20.33;;;11.80;;
65071;SDS011;51663;52.310;17.016;2023-02-28T16:14:25;27.13;;;12.37;;
65071;SDS011;51663;52.310;17.016;2023-02-28T16:17:35;23.07;;;11.63;;
65071;SDS011;51663;52.310;17.016;2023-02-28T16:20:40;18.07;;;12.63;;
65071;SDS011;51663;52.310;17.016;2023-02-28T16:23:46;29.43;;;14.00;;
65071;SDS011;51663;52.310;17.016;2023-02-28T16:26:50;26.50;;;13.10;;
65071;SDS011;51663;52.310;17.016;2023-02-28T16:29:53;26.87;;;14.37;;
65071;SDS011;51663;52.310;17.016;2023-02-28T16:32:56;28.87;;;13.60;;
65071;SDS011;51663;52.310;17.016;2023-02-28T16:36:02;27.67;;;12.53;;
65071;SDS011;51663;52.310;17.016;2023-02-28T16:39:10;39.30;;;19.10;;
65071;SDS011;51663;52.310;17.016;2023-02-28T16:42:15;45.00;;;19.40;;
65071;SDS011;51663;52.310;17.016;2023-02-28T16:45:24;55.83;;;23.40;;
65071;SDS011;51663;52.310;17.016;2023-02-28T16:48:29;99.07;;;37.90;;
65071;SDS011;51663;52.310;17.016;2023-02-28T16:51:32;96.90;;;39.17;;
65071;SDS011;51663;52.310;17.016;2023-02-28T16:54:43;62.37;;;25.23;;
65071;SDS011;51663;52.310;17.016;2023-02-28T16:57:57;59.90;;;25.70;;
65071;SDS011;51663;52.310;17.016;2023-02-28T17:01:11;53.07;;;25.77;;
65071;SDS011;51663;52.310;17.016;2023-02-28T17:04:16;48.43;;;24.07;;
65071;SDS011;51663;52.310;17.016;2023-02-28T17:07:20;63.10;;;27.37;;
65071;SDS011;51663;52.310;17.016;2023-02-28T17:10:28;50.03;;;23.77;;
65071;SDS011;51663;52.310;17.016;2023-02-28T17:13:44;62.20;;;27.63;;
65071;SDS011;51663;52.310;17.016;2023-02-28T17:16:47;66.00;;;30.40;;
65071;SDS011;51663;52.310;17.016;2023-02-28T17:20:03;59.03;;;29.47;;
65071;SDS011;51663;52.310;17.016;2023-02-28T17:23:19;59.13;;;26.30;;
65071;SDS011;51663;52.310;17.016;2023-02-28T17:26:25;58.97;;;27.10;;
65071;SDS011;51663;52.310;17.016;2023-02-28T17:29:30;71.20;;;31.37;;
65071;SDS011;51663;52.310;17.016;2023-02-28T17:32:35;70.70;;;32.47;;
65071;SDS011;51663;52.310;17.016;2023-02-28T17:35:39;124.57;;;49.80;;
65071;SDS011;51663;52.310;17.016;2023-02-28T17:38:41;161.43;;;69.17;;
65071;SDS011;51663;52.310;17.016;2023-02-28T17:41:47;109.37;;;46.47;;
65071;SDS011;51663;52.310;17.016;2023-02-28T17:44:56;71.30;;;31.83;;
65071;SDS011;51663;52.310;17.016;2023-02-28T17:47:59;93.03;;;43.23;;
65071;SDS011;51663;52.310;17.016;2023-02-28T17:51:19;86.90;;;37.90;;
65071;SDS011;51663;52.310;17.016;2023-02-28T17:54:43;99.03;;;40.17;;
65071;SDS011;51663;52.310;17.016;2023-02-28T17:57:57;94.83;;;39.13;;
65071;SDS011;51663;52.310;17.016;2023-02-28T18:01:37;89.13;;;38.83;;
65071;SDS011;51663;52.310;17.016;2023-02-28T18:05:02;92.97;;;35.13;;
65071;SDS011;51663;52.310;17.016;2023-02-28T18:08:07;98.10;;;38.27;;
65071;SDS011;51663;52.310;17.016;2023-02-28T18:11:11;125.17;;;49.47;;
65071;SDS011;51663;52.310;17.016;2023-02-28T18:14:20;124.43;;;48.40;;
65071;SDS011;51663;52.310;17.016;2023-02-28T18:17:25;115.17;;;47.47;;
65071;SDS011;51663;52.310;17.016;2023-02-28T18:20:27;112.87;;;45.97;;
65071;SDS011;51663;52.310;17.016;2023-02-28T18:23:30;181.03;;;80.17;;
65071;SDS011;51663;52.310;17.016;2023-02-28T18:26:33;122.60;;;53.77;;
65071;SDS011;51663;52.310;17.016;2023-02-28T18:29:35;134.50;;;56.60;;
65071;SDS011;51663;52.310;17.016;2023-02-28T18:32:41;113.23;;;47.20;;
65071;SDS011;51663;52.310;17.016;2023-02-28T18:35:43;109.70;;;46.20;;
65071;SDS011;51663;52.310;17.016;2023-02-28T18:38:46;109.17;;;43.80;;
65071;SDS011;51663;52.310;17.016;2023-02-28T18:41:48;89.83;;;39.60;;
65071;SDS011;51663;52.310;17.016;2023-02-28T18:44:51;116.30;;;47.40;;
65071;SDS011;51663;52.310;17.016;2023-02-28T18:47:53;111.47;;;47.57;;
65071;SDS011;51663;52.310;17.016;2023-02-28T18:50:56;138.73;;;55.87;;
65071;SDS011;51663;52.310;17.016;2023-02-28T18:54:01;161.10;;;65.50;;
65071;SDS011;51663;52.310;17.016;2023-02-28T18:57:16;147.07;;;58.90;;
65071;SDS011;51663;52.310;17.016;2023-02-28T19:00:21;137.50;;;57.40;;
65071;SDS011;51663;52.310;17.016;2023-02-28T19:03:37;117.67;;;48.80;;
65071;SDS011;51663;52.310;17.016;2023-02-28T19:06:44;156.97;;;56.63;;
65071;SDS011;51663;52.310;17.016;2023-02-28T19:09:50;153.17;;;58.20;;
65071;SDS011;51663;52.310;17.016;2023-02-28T19:12:53;170.20;;;63.87;;
65071;SDS011;51663;52.310;17.016;2023-02-28T19:16:02;195.50;;;67.53;;
65071;SDS011;51663;52.310;17.016;2023-02-28T19:19:05;267.93;;;88.90;;
65071;SDS011;51663;52.310;17.016;2023-02-28T19:22:10;263.90;;;87.77;;
65071;SDS011;51663;52.310;17.016;2023-02-28T19:25:25;233.20;;;84.13;;
65071;SDS011;51663;52.310;17.016;2023-02-28T19:28:28;209.60;;;75.67;;
65071;SDS011;51663;52.310;17.016;2023-02-28T19:31:38;262.87;;;89.83;;
65071;SDS011;51663;52.310;17.016;2023-02-28T19:34:40;293.23;;;98.30;;
65071;SDS011;51663;52.310;17.016;2023-02-28T19:37:43;284.10;;;95.93;;
65071;SDS011;51663;52.310;17.016;2023-02-28T19:40:45;285.67;;;103.37;;
65071;SDS011;51663;52.310;17.016;2023-02-28T19:43:49;269.73;;;95.50;;
65071;SDS011;51663;52.310;17.016;2023-02-28T19:46:53;239.43;;;89.43;;
65071;SDS011;51663;52.310;17.016;2023-02-28T19:49:56;246.43;;;87.80;;
65071;SDS011;51663;52.310;17.016;2023-02-28T19:52:58;231.43;;;81.03;;
65071;SDS011;51663;52.310;17.016;2023-02-28T19:56:02;246.80;;;81.97;;
65071;SDS011;51663;52.310;17.016;2023-02-28T19:59:05;206.37;;;71.80;;
65071;SDS011;51663;52.310;17.016;2023-02-28T20:02:22;213.10;;;70.10;;
65071;SDS011;51663;52.310;17.016;2023-02-28T20:05:24;222.27;;;76.43;;
65071;SDS011;51663;52.310;17.016;2023-02-28T20:08:27;154.13;;;60.07;;
65071;SDS011;51663;52.310;17.016;2023-02-28T20:11:29;144.20;;;53.20;;
65071;SDS011;51663;52.310;17.016;2023-02-28T20:14:31;102.70;;;44.90;;
65071;SDS011;51663;52.310;17.016;2023-02-28T20:17:34;112.73;;;49.00;;
65071;SDS011;51663;52.310;17.016;2023-02-28T20:20:44;163.03;;;58.87;;
65071;SDS011;51663;52.310;17.016;2023-02-28T20:23:50;133.17;;;55.23;;